La Cigale - Luc Leblanc - 8° Edition - 03/05/2009

104 Km


Pl Do. Nom - Surname Prénom - Name S-Cat Club - Team TEMPS - Time /sx /cat Vit.
1 692 GENTIL CEDRIC MD SVC NIMOIS 02:46:07 1 1 37,56
2 885 VASQUEZ THIERRY MG UC MONTMEYRAND 02:46:07 2 1 37,56
3 772 KACHLER GILLES FSE AS POLICE 02:46:28 3 1 37,48
4 650 HOSOTTE PATRICK MSE ASSO SOUVENIR J ANQUETIL 02:46:32 4 1 37,47
5 840 PELAQUIE THIBAULT MD WINBIKE 02:46:32 5 2 37,47
6 722 ROUX PHILIPPE FSE TMB ST AUNÈS 02:46:32 6 2 37,47
7 801 PIVAIN CLAUDE ME ASPH MONTPELLIER 02:46:32 7 1 37,47
8 702 COUDENE SEBASTIEN ME USCV 02:46:32 8 2 37,47
9 915 ANGLIVIER NICOLAS ME AC CORCONNE 02:46:33 9 3 37,46
10 886 GRENIER YOANN ME C BOURCAIN 02:46:33 10 4 37,46
11 823 JULVE FREDERIC MD VS NARBONNAIS 02:46:33 11 3 37,46
12 901 RODRIGUES ANTONIO MG TEAM VELO SERVICE 02:46:33 12 2 37,46
13 509 FERRY JEAN FRANÇOIS FSE AVCA 02:46:33 13 3 37,46
14 819 DONNADIEU JEAN YVES ME ROUE LIBRE GIGNACOISE 02:46:33 14 5 37,46
15 765 ESCUDIER JACQUES MG AS POLICE 02:46:33 15 3 37,46
16 824 VETTOR THIERRY FSE ST DREZERY CC 02:46:34 16 4 37,46
17 735 CATONI VINCENT MD SUD VELO NE JETEZ PLUS! 02:46:34 17 4 37,46
18 612 MARTRE NORBERT MJ VELO SPRINT MINERVOIS 02:46:34 18 1 37,46
19 925 BOISSIERE DENIS FSE VC MONT AIGOUAL 02:46:34 19 5 37,46
20 524 AZZOPARDI STEVE ME UC ARTIX 02:46:34 20 6 37,46
21 837 ROSADO PHILIPPE MG AS POLICE 02:46:34 21 4 37,46
22 578 LAUSSEL FABRICE ME VCLL Pézenas 02:46:34 22 7 37,46
23 539 VALADAS ANTHONY MD MOUSQUETAIRES PRADEENS 02:46:35 23 5 37,46
24 738 RAVIERE OLIVIER FSE SUD VELO NE JETEZ PLUS! 02:46:35 24 6 37,46
25 870 FESQUET CHRISTOPHE MSE VC AIGUES MORTES 02:46:35 25 2 37,46
26 592 MADRIERES PHILIPPE FSE VC MENDE LOZERE 02:46:35 26 7 37,46
27 697 FIORITO BRUNO FSE AVC AIX EN PVENCE 02:46:35 27 8 37,46
28 718 GALLEN HERVE MSE MJC PLAN DE CUQUES 02:46:36 28 3 37,45
29 903 ABATE LUDOVIC ME EC PUJAUT 02:46:36 29 8 37,45
30 717 FLOURET RÉMI MI VÉLO CLUB LES 3 C 02:46:36 30 1 37,45
31 771 JIGOT PATRICK ME AS POLICE 02:46:36 31 9 37,45
32 660 GILLES PHILIPPE FSE LUNEL EGOBIKE 02:46:36 32 9 37,45
33 897 CLAUZEL CHRISTOPHE FSE VC SALINDRES 02:46:59 33 10 37,37
34 730 DELESSERT GUY MSE VC VITROLLES 02:47:57 34 4 37,15
35 507 GRANGER JEROME ME UC PIERRELATTE 02:48:32 35 10 37,02
36 678 LEFEBVRE RICHARD ME VCC BIETRROIS 02:48:45 36 11 36,98
37 779 MONGAY SEBASTIEN FSE AS POLICE 02:48:46 37 11 36,97
38 835 BATUT CHRISTOPHE MD MONTPELLIER LANGUEDOC CYCLISME 02:48:46 38 6 36,97
39 733 BRONSTEIN JULIEN ME SUD VELO NE JETEZ PLUS! 02:48:47 39 12 36,97
40 542 SERRANO CHRISTOPHE FSE LES RECYCLÉS 02:48:47 40 12 36,97
41 734 BRUN LAURENT ME SUD VELO NE JETEZ PLUS! 02:48:48 41 13 36,97
42 770 GUELTON LAURENT FSE AS POLICE 02:48:48 42 13 36,97
43 617 FABRE OLIVIER ME MONTAGNAC AC 02:48:48 43 14 36,96
44 710 COURRIEU JEAN MICHEL FSE CC BEDARIEUX 02:48:49 44 14 36,96
45 648 OLLER PIERRE ME VCLL Pézenas 02:48:49 45 15 36,96
46 805 TURC LUDOVIC ME TRI GRANDE MOTTE 02:48:50 46 16 36,96
47 754 BENEZET FREDERIC MG VC ALESIEN 02:48:50 47 5 36,96
48 741 GUERIF LOUIS MARIE MD SUD VELO NE JETTEZ PLUS 02:49:21 48 7 36,85
49 629 AUDRIN CHRISTIAN FSE ROUE LIBRE GIGNACOISE 02:49:21 49 15 36,85
50 679 LLOVERAS CLAUDE MG MONTPELLIER AGGLO TRI 02:51:04 50 6 36,47
51 905 SERVAIS ALAIN MI FONTVIEILLE CC 02:53:24 51 2 35,98
52 693 DEHURTEVENT CHRISTOPHE FSE CYCLOTEAM 69 02:54:04 52 16 35,85
53 745 LEQUEUX JEAN CLAUDE MG FLECHE DU MIDI 02:54:09 53 7 35,83
54 555 LE DISEZ DOMINIQUE MG ASLC MECACHROME 02:54:12 54 8 35,82
55 898 OLOMBEL JEROME FSE ST AUNES 02:54:17 55 17 35,80
56 587 FLORENTIN FRANCOIS FSE FLECHE DU MIDI 02:54:21 56 18 35,79
57 720 NACER HAKIM FSE VC MAUGUIO 02:54:21 57 19 35,79
58 802 LEJEUNE ELOÏC ME ASPH MONTPELLIER 02:54:22 58 17 35,78
59 797 BOUBAYA DENIS MSE VC ENTRESSEN 02:54:23 59 5 35,78
60 625 MONTAGUD FRANCOIS MG AIGUES MORTES 02:54:23 60 9 35,78
61 792 CANTELE JEAN MG FONTVIEILLE CC 02:54:24 61 10 35,78
62 731 AT FRÉDÉRIC ME FLECHE DU MIDI 02:54:24 62 18 35,78
63 787 BELLELLE CECILE FC USPI 02:54:25 1 1 35,78
64 853 FABRE OLIVIER ME VC MAURIAC 02:54:26 63 19 35,77
65 611 CABALLE MICHEL ME VCLL Pézenas 02:54:33 64 20 35,75
66 662 SOLER ESÉNIO MG CORNEILLA CYCLOSPORT CATALAN 02:54:34 65 11 35,74
67 832 ESPINOSA OLIVIER ME ASPH MONTPELLIER 02:56:11 66 21 35,41
68 868 DAMOFLI JEAN MG MARTIGUES SC 02:56:12 67 12 35,41
69 606 LEPROM JERÔME ME VC MAUGUIO 02:56:12 68 22 35,41
70 854 FELICETTI RODOLPHE ME VC LA POMME 02:56:13 69 23 35,41
71 815 GIBERT REGIS MD   02:56:13 70 8 35,41
72 506 TOLMOS SEBASTIEN ME ASPH MONTPELLIER 02:56:14 71 24 35,41
73 821 BLANCA SERGE ME VC PENNOIS 02:56:14 72 25 35,40
74 793 MIGOUROUX OLIVIER ME VC MAUGUIO 02:56:15 73 26 35,40
75 892 BONNY ROBERT MI ASPTT AIX EN PROV 02:56:15 74 3 35,40
76 763 BERRUX JÉRÔME ME AS POLICE 02:56:15 75 27 35,40
77 671 MALLE JEROME ME BIKE TARN SUD 02:56:15 76 28 35,40
78 760 BOUSQUET JOSIAN ME VELO EVASION VILLEVEYRAC 02:56:16 77 29 35,40
79 836 CHEVALLIER SEBASTIEN ME VSG ALES 02:56:16 78 30 35,40
80 232 SAVARESE VINCENT MJ CC COURTHEZON 02:56:17 79 2 35,40
81 866 VILLEVIEILLE EMMANUEL FSE ENERGY CYCLE MOZAC 02:56:17 80 20 35,40
82 766 DEBAERE DOMINIQUE FSE AS POLICE 02:56:17 81 21 35,40
83 899 RAMBAUD PATRICK MD VC SALINDRES 02:56:17 82 9 35,40
84 711 CROSSON JAMES ME MONTPELLIER AGGLO TRI 02:56:17 83 31 35,40
85 900 DAMAS JOAO MSE TEAM VELO SERVICE 02:56:17 84 6 35,39
86 698 SEVILLA PIERRE MG ROUE D'OR MARIGNANE 02:56:18 85 13 35,39
87 701 BEAUZEDAT RENÉ MJ VC ALESIEN 02:56:18 86 3 35,39
88 687 ROCH BRUNO MG TEYRAN BIKE 34 02:56:18 87 14 35,39
89 746 CAUSSEL LILIAN ME FLECHE DU MIDI 02:56:18 88 32 35,39
90 747 NAVARRO ANTHONY MD VC SALINDRES 02:56:18 89 10 35,39
91 755 MATTASOGLIO HÉRALD MI TMB ST AUNES 02:56:19 90 4 35,39
92 820 COPPOLA GÉRALD ME FLECHE DU MIDI 02:56:19 91 33 35,39
93 810 DEL CONFETTO FRANCK FSE VC SALINDRES 02:56:20 92 22 35,39
94 581 BOUISSIERE SEBASTIEN MD UV MAZAMET 02:56:21 93 11 35,38
95 672 BRANDEL GREGORY ME UV MAZAMET 02:56:50 94 34 35,29
96 541 RICHARD ROBERT MSE VAULX EN VELIN 02:59:01 95 7 34,85
97 714 COUDERT JULIEN MD TRISUD18 02:59:22 96 12 34,79
98 690 DUCHMANN JEAN MARC FSE VC SALINDRES 02:59:48 97 23 34,70
99 570 PERICHON BENOIT MD TM3 ST AUNES 03:00:11 98 13 34,63
100 848 FRANCK CERDIC ME VC LANSARGUES 03:00:30 99 35 34,57
101 726 OLIVET DANIEL MSE ASPH MONTPELLIER 03:00:34 100 8 34,56
102 583 RAYNAUD YVES MSE TEYRAN BIKE 34 03:00:52 101 9 34,50
103 846 DEVISE OLIVIER ME VC MELGORIEN 03:01:20 102 36 34,41
104 780 ORTEGA OLIVIER FSE AS POLICE 03:01:21 103 24 34,41
105 777 MICHEL JEAN LUC MG AS POLICE 03:01:21 104 15 34,41
106 664 GADENNE ALAIN MI CORNEILLA CYCLOSPORT CATALAN 03:01:22 105 5 34,40
107 929 MICHAUD PATRICK FSE CROCOS D'AIRAIN 03:01:23 106 25 34,40
108 558 PASQUALINI MARCO MSE VC AIGUES MORTES 03:01:23 107 10 34,40
109 932 MARTIN BRUNO FSE   03:01:23 108 26 34,40
110 651 HOSOTTE SOPHIE FC ASSO SOUVENIR J ANQUETIL 03:01:24 2 2 34,40
111 244 HENNION CEDRIC ME SAINT JAMES VC 03:01:24 109 37 34,40
112 851 THUILLIER LOUIS MJ   03:01:24 110 4 34,40
113 530 PLATON ANDRÉ MJ VC ALESIEN 03:01:24 111 5 34,40
114 776 MARTINEZ JUAN ME AS POLICE 03:01:25 112 38 34,40
115 567 CROSS ALAN MJ CC ST DRESERY 03:01:25 113 6 34,39
116 794 ROUSSILLE WILLIAM FSE MAUGUI CARNON 03:01:25 114 27 34,39
117 822 CALIFANO PAUL FSE VC PENNOIS 03:01:25 115 28 34,39
118 665 MAINGOT PHILIPPE MI CORNEILLA CYCLOSPORT CATALAN 03:01:25 116 6 34,39
119 531 DOSTES MAX MJ VÉLO CLUB VITROLLES 03:01:25 117 7 34,39
120 218 ARZOINE MAURICE MG CROCOS D'AIRAIN 03:01:26 118 16 34,39
121 761 BRIANT JACQUES MJ   03:01:26 119 8 34,39
122 627 LAMBERT MICHEL MJ ALB 03:01:26 120 9 34,39
123 850 MIALLY JEAN MICHEL FSE ST DREZERY CC 03:01:27 121 29 34,39
124 580 LAVIGNE JEAN MJ VELO D'OLT 03:01:27 122 10 34,39
125 503 ROUX DIDIER MG   03:01:27 123 17 34,39
126 618 SAADI SAMY ME VC SENAS 03:01:28 124 39 34,39
127 576 RAZEAU VINCENT ME   03:01:28 125 40 34,39
128 880 LAPUYADE ERIC MG TRI GRANDE MOTTE 03:01:28 126 18 34,38
129 663 MACHADO CHRISTOPHE ME VO2 CYCLING TEAM 03:01:29 127 41 34,38
130 684 BONNET DOMINIQUE FSE   03:01:29 128 30 34,38
131 543 GUIRAND HERVÉ MG LES RECYCLÉS 03:01:30 129 19 34,38
132 834 VIELLEVIGNE THIERRY MG VC FONTVIEILLE 03:01:30 130 20 34,38
133 800 COURSIERE STÉPHANE FSE CLUB NEUTRE LR 03:01:30 131 31 34,38
134 919 MELLET CYRIL ME ASPH MONTPELLIER 03:01:31 132 42 34,38
135 830 VIDAL CLÉMENT MD LA FLECHE FLONACOISE 03:02:50 133 14 34,13
136 520 CAUSSEL LOUIS MJ FLECHE DU MIDI 03:02:52 134 11 34,12
137 529 LONGO DANIEL MSE MASSALIA CYCLISME 03:02:54 135 11 34,12
138 893 NUBOLS JOEL MI SP SETE 03:03:03 136 7 34,09
139 856 BOSCH CYRIL FSE   03:03:23 137 32 34,03
140 521 ROQUES YVES FSE VCLL Pézenas 03:03:26 138 33 34,02
141 852 RIGAL SACHA MD   03:04:17 139 15 33,86
142 867 LETOURNEUR MARC FSE   03:04:27 140 34 33,83
143 596 MEGIAS PATRICK MI VC MATHEYSIN 03:04:27 141 8 33,83
144 633 MARTINEZ JEAN FSE TAM CYCLO 03:04:28 142 35 33,83
145 788 GALLEN NATHALIE FC MJC PLAN DE CUQUES 03:04:29 3 3 33,82
146 716 FAVARON LAURENT FSE   03:05:28 143 36 33,64
147 786 VIGUIER JEAN MARC FSE AS POLICE 03:05:38 144 37 33,61
148 593 SELLES PHILIPPE FSE USTM SEPTEMES 03:06:09 145 38 33,52
149 533 LEGRAND YANNICK MG VC MAUGUIO 03:06:11 146 21 33,51
150 673 ROGER JEAN BAPTISTE ME   03:06:12 147 43 33,51
151 887 NEGRI JOEL ME VC MAZARGUAIS 03:06:21 148 44 33,48
152 769 GHAZI ADEL ME AS POLICE 03:06:25 149 45 33,47
153 549 GINOUX FREDERIC ME VC SALINDRES 03:06:28 150 46 33,46
154 782 POUILHE DAVID ME AS POLICE 03:06:28 151 47 33,46
155 768 GAULUET ERIC MG AS POLICE 03:06:28 152 22 33,46
156 838 CORTES MICHEL MG   03:06:28 153 23 33,46
157 916 CRUZ THIERRY MG CJMPT 03:06:29 154 24 33,46
158 904 VALETTE ERIC FSE   03:07:04 155 39 33,36
159 839 DURAND MARC ME   03:07:04 156 48 33,35
160 632 BROS THIERRY MG TAM CYCLO 03:07:23 157 25 33,30
161 812 CHAVIGNON ALAIN MI   03:07:23 158 9 33,30
162 621 COAT BERNARD MJ   03:07:25 159 12 33,29
163 613 LUNET YVES MJ BIKE AVENTURE 03:07:25 160 13 33,29
164 631 ROSSIGNOL MARC ME TAM CYCLO 03:07:25 161 49 33,29
165 620 FLACON PIERRE YVES MG ST DREZERY CC 03:07:25 162 26 33,29
166 550 PERRET MONIQUE FC   03:07:26 4 4 33,29
167 686 SPINELLA ROBERT MJ ASS COC CARNON 03:07:26 163 14 33,29
168 725 COMBES JEAN LOUIS MJ AMICALE BALARUC 03:07:26 164 15 33,29
169 784 TRAIZIT DIDIER ME AS POLICE 03:07:26 165 50 33,29
170 628 BORDIER GÉRARD MJ UC CAMPAN VALLEE 03:07:26 166 16 33,29
171 724 SISTERNES RAYMOND MJ VCLL Pézenas 03:07:26 167 17 33,29
172 764 CATHALA SERGE MG AS POLICE 03:07:27 168 27 33,29
173 674 GIBERT GABRIEL ME   03:07:27 169 51 33,29
174 548 GERAUD ALAIN MSE   03:07:28 170 12 33,28
175 783 SERRA PASCAL FSE AS POLICE 03:07:28 171 40 33,28
176 795 VEYER EMMANUEL ME VC ENTRESSEN 03:07:28 172 52 33,28
177 762 SEBASTIEN GUY FSE SC ARLES 03:07:34 173 41 33,27
178 574 ENJALRIC YVES MG ROC EVASION 03:08:05 174 28 33,18
179 922 AUMOINE CHRISTIAN FSE MONTPELLIER LANGUEDOC CYCLISME 03:08:11 175 42 33,16
180 753 MEDIONI PIERRE FSE TRI GRANDE MOTTE 03:08:25 176 43 33,12
181 930 L'HOSTIS CHRISTOPHE ME SC ARLES 03:08:43 177 53 33,06
182 906 MORAND FABRICE MSE MONTAGNAC AC 03:09:07 178 13 32,99
183 933 LE CAM SYLVAIN FSE   03:09:35 179 44 32,91
184 538 GUERIN LAURENT ME VC CHEMINOT DE BÉZIERS 03:09:43 180 54 32,89
185 607 ALIAGA JEAN MARIE MSE ASPH MONTPELLIER 03:09:52 181 14 32,86
186 894 REBEYROTTE VINCENT MG CC ST CLEMENT 03:09:55 182 29 32,86
187 816 SUSINI ROBERT MI CC REMOULINS 03:10:15 183 10 32,80
188 826 MESTRE DANIEL MJ   03:10:27 184 18 32,76
189 598 CARUSO JEAN MARC ME LUNEL EGOBIKE 03:10:39 185 55 32,73
190 589 GUIBERT SYLVAIN ME   03:10:39 186 56 32,73
191 721 PECH FRANCIS MI LR NEUTRE 03:10:56 187 11 32,68
192 222 SERRA GÉRARD MSE CROCOS D'AIRAIN 03:11:21 188 15 32,61
193 512 FENDRICH PATRICK MSE VC LUNELLOIS 03:11:29 189 16 32,59
194 623 MAS CHRISTIAN MJ AVC BOUZIGUES 03:11:30 190 19 32,58
195 610 RESCHKE JEAN GREGOIRE FSE MONTPELLIER AGGLO TRI 03:11:30 191 45 32,58
196 843 L'HERMET JOEL MJ CLUB NEUTRE LR 03:12:27 192 20 32,42
197 649 CHABBERT HENRI NOEL MSE VCLL Pézenas 03:12:27 193 17 32,42
198 785 TURPIN DENIS MSE AS POLICE 03:13:10 194 18 32,30
199 518 RICAUD JACQUES MG CSB LA BOUILLADISE 03:13:13 195 30 32,29
200 775 MARTINEZ JOSE MG AS POLICE 03:13:13 196 31 32,29
201 647 GRUWEZ JACQUES MJ ST HILAIRE DE BRETHMAS 03:13:14 197 21 32,29
202 527 PLANTIER GÉRARD MSE VC ALESIEN 03:13:14 198 19 32,29
203 554 MUSSET BERNARD MI OC PROVENCE 03:13:15 199 12 32,29
204 910 GOURMET JEAN JACK MI CSC CRAVEN 03:13:16 200 13 32,29
205 811 SAGNARD NOURI MG CROCOS D'AIRAIN 03:13:26 201 32 32,26
206 862 MUSCAT PATRICK FSE MASSALIA CYCLISME 03:14:17 202 46 32,12
207 873 GRASDEPOT FRANCOIS MI   03:15:05 203 14 31,98
208 875 MARTINI LAURENT MSE   03:15:09 204 20 31,97
209 902 BLANC PATRICE MG VCLL Pézenas 03:15:23 205 33 31,94
210 752 BEN ABDESLEM MOHAMED MJ SC ARLES 03:15:23 206 22 31,94
211 597 VALETTE ANTHONY MD LUNEL EGOBIKE 03:15:23 207 16 31,94
212 923 DELION ANTHONY MD   03:15:24 208 17 31,93
213 744 LEQUEPEYS DENIS ME LANSARGUES 03:15:26 209 57 31,93
214 736 DUCROS DAVID FSE SUD VELO NE JETEZ PLUS! 03:15:26 210 47 31,93
215 634 CROUZET CHRISTIAN MSE CC CASTRIES 03:15:36 211 21 31,90
216 653 SALVINI PHILIPPE ME   03:15:41 212 58 31,89
217 563 SANSONNE ERIC FSE ST JUST AVENTURE 03:16:06 213 48 31,82
218 601 CHAUZU LUDOVIC ME LUNEL EGOBIKE 03:16:10 214 59 31,81
219 827 PAGANI SERGE MG ESTEREL MONTAIN BIKE 03:16:10 215 34 31,81
220 642 TORQUEBIAU GAEL ME ROUE LIBRE GIGNACOISE 03:16:11 216 60 31,81
221 609 SIFFRE JEAN MARIE ME CLUB NEUTRE LR 03:16:26 217 61 31,77
222 644 BONAFOS ROMAIN ME GUIDON SPORTIF SETOIS 03:16:31 218 62 31,75
223 742 WIPF MICKAEL ME VC AIGUES MORTES 03:16:44 219 63 31,72
224 608 VINET STÉPHANE FSE CORNEILLA CYCLOSPORT CATALAN 03:16:58 220 49 31,68
225 831 MACETTI ALAIN FSE UZES VC 03:17:00 221 50 31,67
226 728 REGALDI NICOLAS FSE ALFG 03:17:00 222 51 31,67
227 707 DE SAN PEDRO GEORGES MJ VC VAILHAUQUOIS 03:17:01 223 23 31,67
228 630 GRENIER MAURICE MI C BOURCAIN 03:17:03 224 15 31,67
229 920 MOUSSAY CHRITINE FC VC ISLOIS 03:17:03 5 5 31,67
230 658 MAIRESSE ROBERT MJ CORNEILLA CYCLOSPORT CATALAN 03:17:03 225 24 31,67
231 921 LUCIANI CHRISTOPHE MSE VC ISLOIS 03:17:04 226 22 31,66
232 878 FABRE ERIC FSE VC TCN 03:17:04 227 52 31,66
233 859 VALETTE SERGE MI TEYRAN BIKE 34 03:17:05 228 16 31,66
234 622 BARROT YVES MJ   03:17:05 229 25 31,66
235 917 LAFFI BERNARD MJ EXCELSIOR CLUB MARSEILLE 03:17:06 230 26 31,66
236 796 PINOT VALERIE FB VC ENTRESSEN 03:17:06 6 1 31,66
237 908 RAVET CLAUDE MSE MONTAGNAC-AC 03:17:07 231 23 31,66
238 636 JOUANET JEAN PIERRE MJ UV ANGERS 03:17:08 232 27 31,65
239 668 SARDA PATRICE ME LAROQUE D'OLMES 03:17:08 233 64 31,65
240 544 MARTIN JEAN MICHEL MG LES RECYCLÉS 03:17:13 234 35 31,64
241 624 ALIBERT BRUNO MSE RAC MIREVAL 03:17:28 235 24 31,60
242 732 BERGER JEAN YVES MSE SUD VELO NE JETTEZ PLUS 03:17:45 236 25 31,55
243 699 TABOURET JEAN MARC FSE   03:17:46 237 53 31,55
244 42 VITOU ALAIN MG FLECHE DU MIDI 03:17:47 238 36 31,55
245 914 AUZET STEPHANE FSE VC MAZARGUAIS 03:18:03 239 54 31,51
246 696 HOLLARD PHILIPPE MG   03:18:59 240 37 31,36
247 723 BONNET CHRISTOPHE ME SUD VELO NE JETTEZ PLUS 03:19:45 241 65 31,24
248 667 MILLAN LAURENCE FC CORNEILLA CYCLOSPORT CATALAN 03:20:05 7 6 31,18
249 869 DERUSCHI FRÉDÉRIC MG TEYRAN BIKE 34 03:20:06 242 38 31,18
250 561 SABATIER MARIE JEANNE FC   03:20:06 8 7 31,18
251 560 SABATIER THIERRY MG TEYRAN BIKE 34 03:20:07 243 39 31,18
252 680 MICHEL SERGE MG LUNEL EGOBIKE 03:20:08 244 40 31,18
253 911 TRANCHARD JEAN PIERRE MJ ROUE D'OR MARIGNANE 03:20:10 245 28 31,17
254 584 DEGEILH PHILIPPE ME   03:21:17 246 66 31,00
255 568 MOUCHE JEAN YVES MJ TEAM VELO PASSION 03:21:52 247 29 30,91
256 640 MASSA GILBERT MD USTM 03:22:10 248 18 30,86
257 847 GONZALES ANDRE MSE MTB ST AUNES 03:23:05 249 26 30,73
258 774 MARIBAUD ROBERT ME AS POLICE 03:23:20 250 67 30,69
259 523 PEREIRA GERARD MI TEYRAN BIKE 34 03:23:20 251 17 30,69
260 508 ETIENNE GUY MI VC LUNELLOIS 03:23:21 252 18 30,68
261 599 JOSUAN JACQUES MI LUNEL EGOBIKE 03:23:27 253 19 30,67
262 879 BOSC GUILLAUME ME TRI RUN FRONTIGNAN 03:23:28 254 68 30,67
263 781 PAGES BRUNO MG AS POLICE 03:23:29 255 41 30,66
264 691 TURQUAY FREDERIC MSE   03:23:30 256 27 30,66
265 814 LABERTRANDE PAUL MJ SPRINTER ARLESIEN 03:23:30 257 30 30,66
266 798 PAGES MICHEL MJ STVS TULLE 03:23:30 258 31 30,66
267 817 NAFRAICHEUR CLAUDE MSE CROCOS D'AIRAIN 03:23:31 259 28 30,66
268 643 DAUMOND JEAN CLAUDE MJ VC MELGORIEN 03:23:31 260 32 30,66
269 517 ROQUE GILBERT MJ   03:23:31 261 33 30,66
270 619 BLANC BRUNO FSE VELOTONIC VAUVERT 03:23:33 262 55 30,65
271 790 FERIAUD PHILIPPE MG AIGUES MORTES 03:23:47 263 42 30,62
272 579 KWASNY STANISLAS MJ VC SPIRIDON 03:23:59 264 34 30,59
273 833 CIDON NORBERT MG VC FONTVIEILLE 03:24:00 265 43 30,59
274 501 RAVE ALAIN MG   03:24:21 266 44 30,53
275 778 MOIG LAURENT ME AS POLICE 03:25:09 267 69 30,41
276 876 MOLINE JOHN MSE   03:25:57 268 29 30,30
277 119 AUBERT CHRISTIAN MSE FONTVIEILLE CC 03:26:54 269 30 30,16
278 605 GRASSET GUY MI VELOTONIC VAUVERT 03:27:11 270 20 30,12
279 582 GRANIER YVAN ME POUSSAN 03:27:15 271 70 30,11
280 566 ALBINET CLAUDE MJ VC SALINDRES 03:27:43 272 35 30,04
281 519 BERARD MARC MG VÉLO CLUB ARLÉSIEN 03:28:00 273 45 30,00
282 865 MANSELL CHARLES MSE SAINT JAMES VC 03:29:03 274 31 29,85
283 719 GAZEL MICHEL MG ROUE D'OR MARIGNANE 03:29:51 275 46 29,73
284 751 VOURIOT GILBERT MI   03:29:52 276 21 29,73
285 586 BORNOT MANUEL FSE VC MANOSQUE 03:30:19 277 56 29,67
286 585 TRANI ISABELLE FB VC MANOSQUE 03:30:20 9 2 29,67
287 758 GELY ERIC MG GENDARMERIE LUNEL 03:30:23 278 47 29,66
288 750 SANTALUCIA JACQUES MSE COURIR À BEAUCAIRE 03:30:56 279 32 29,58
289 895 GAUMY CHRISTOPHE MD UC LABERSAC 03:31:34 280 19 29,49
290 534 GUERRIER FREDERIC FSE VC MARVEJOLS 03:31:38 281 57 29,48
291 695 PIERI FABRICE ME VC ST GEORGES 03:33:08 282 71 29,28
292 704 BEAUMONT LAURENCE FC TEYRAN BIKE 34 03:33:37 10 8 29,21
293 559 LANDIER ANDRÉ MJ VC CLERMONT L'HLT 03:33:50 283 36 29,18
294 860 CHAUVIN MARCEL MSE   03:33:51 284 33 29,18
295 807 AMPHOUX SERGE MSE   03:33:52 285 34 29,18
296 913 CAVARESSE MICHEL MG   03:34:08 286 48 29,14
297 740 VUILLERME MANUEL FSE SUD VELO NE JETEZ PLUS! 03:34:47 287 58 29,05
298 522 ZUCCARO JEAN MARC MG ROUE D'OR GIGNAC 03:34:48 288 49 29,05
299 652 NIQUET PATRICK MI AC ST BARNABE 03:34:50 289 22 29,05
300 712 CAPPELLETTO JEAN PIERRE MI LA ROUE D'OR 03:34:50 290 23 29,05
301 872 BENOIT ROGER MI   03:34:52 291 24 29,04
302 614 TRANI ANTOINE MI VEDAS ENDURANCE 03:35:13 292 25 28,99
303 71 AMBLARD DIDIER FSE LUNEL EGOBIKE 03:35:21 293 59 28,98
304 590 MARGUERITAT JEAN MICHEL FSE CLUB NEUTRE LR 03:35:31 294 60 28,95
305 912 MICHEL ERIC ME AC CORCONNE 03:36:00 295 72 28,89
306 803 MICHEL DIDIER MG   03:36:19 296 50 28,84
307 926 DELALONDE BERTRAND MSE   03:36:33 297 35 28,81
308 688 DANOS LUC MI VC ST GEORGES 03:36:35 298 26 28,81
309 562 BARBE PATRICE MSE TEYRAN BIKE 34 03:36:38 299 36 28,80
310 546 TABOURET ERIC FSE   03:37:00 300 61 28,75
311 556 LE DISEZ EVELYNE FC ASLC MECACHROME 03:37:19 11 9 28,71
312 569 GARCIA PAUL MJ FONTVIEILLE CC 03:37:39 301 37 28,67
313 700 HURLIN ORLANE FB   03:38:03 12 3 28,62
314 602 SIMON JACKY MI LUNEL EGOBIKE 03:38:40 302 27 28,54
315 729 PERRIN JEAN PAUL MJ TRI LION BELFORT 03:38:40 303 38 28,53
316 890 HIBOT MARCEL MJ VC VALREAS 03:38:42 304 39 28,53
317 514 HAMARD ERNEST MJ VC LUNELLOIS 03:38:45 305 40 28,53
318 841 GUIBAL BERNARD MJ   03:38:47 306 41 28,52
319 513 ARNAUD BERNARD MSE VC LUNELLOIS 03:38:48 307 37 28,52
320 825 NOGUERA JACQUES MSE TEYRAN BIKE 34 03:38:51 308 38 28,51
321 727 SALEIL BENOIT ME FLECHE DU MIDI 03:38:51 309 73 28,51
322 626 CROUZET CHRISTIAN ME COUSERANS CYCLISTE 03:39:19 310 74 28,45
323 551 DUPUY ALAIN MSE   03:39:20 311 39 28,45
324 535 VACADAS ERIC MG TEYRAN BIKE 34 03:39:48 312 51 28,39
325 682 BERKAL PATRICK MJ   03:39:48 313 42 28,39
326 864 MARLAS ANDRE MI CC ST DRESERY 03:39:57 314 28 28,37
327 931 BRUGUIERE JOEL MG CR TAUVES 03:40:01 315 52 28,36
328 646 BARATAUD PATRICK MG   03:40:07 316 53 28,35
329 813 GARCIA ANDRE MJ ST DREZERY CC 03:40:13 317 43 28,33
330 857 POIRIER BRUNO MI   03:40:48 318 29 28,26
331 927 FALISSARD FABRICE ME   03:41:09 319 75 28,22
332 594 BERTHIER REMY MJ   03:41:38 320 44 28,15
333 799 MARTINEZ JEAN PIERRE MJ VC ALESIEN 03:41:54 321 45 28,12
334 532 BALDY DANIEL MJ VC ALESIEN 03:41:54 322 46 28,12
335 891 MAUME JACQUES MI RHONE ALPES CYCLISME 03:41:58 323 30 28,11
336 536 JARNIAS PASCAL MG UC CRUASSIENNE 03:42:16 324 54 28,07
337 685 MONTBARBON GUY MI LUNEL EGOBIKE 03:42:19 325 31 28,07
338 557 SZABO PATRICK MI AIGUES MORTES 03:42:48 326 32 28,01
339 757 DUMON PATRICA FC TEYRAN BIKE 34 03:43:14 13 10 27,95
340 89 FIS JEAN GABRIEL MSE VC ABEILHAN 03:43:45 327 40 27,89
341 537 GERMINAL ALAIN MJ USP CYCLISME 03:43:56 328 47 27,86
342 882 BRACCO ENZO MJ   03:44:17 329 48 27,82
343 681 MOYNIER MARINETTE FC VC VAILHAUQUOIS 03:44:18 14 11 27,82
344 918 TOURRIERE WILLIAM FSE COYOTTE LUNELOIS 03:44:21 330 62 27,81
345 877 MARIONI RICHARD ME   03:45:05 331 76 27,72
346 99 BENTACORDI ROGER MI CC DE VENCE 03:45:29 332 33 27,67
347 703 CASAS ARAGON JOSÉ MG   03:45:35 333 55 27,66
348 884 BERTHET DOMINIQUE MG GLEIZE CC 03:47:10 334 56 27,47
349 849 RAYRAT GUY MJ AC CHALUS 03:47:20 335 49 27,45
350 504 CHEVE PATRICK MI   03:47:22 336 34 27,44
351 604 CANOVAS JEAN MI COCM 03:47:23 337 35 27,44
352 616 FAGEDET JULIEN MJ TOAC 03:47:36 338 50 27,41
353 881 FEDELI PATRICK MSE   03:48:00 339 41 27,37
354 659 GREFFIER JEAN MICHEL MSE LUNEL EGOBIKE 03:48:24 340 42 27,32
355 528 BERTRAND FRANCIS MJ VC ARLESIEN 03:49:05 341 51 27,24
356 655 ALCAIDE MARGARETH FB LUNEL WAMEA TRI 03:49:46 15 4 27,16
357 694 SEGUY MICHEL MI CS CRAVEN 03:51:25 342 36 26,96
358 571 ALCAZAR FRANCIS MI   03:52:58 343 37 26,78
359 861 MENDEZ MANUEL MJ   03:52:59 344 52 26,78
360 595 HALLEY SYLVETTE FC VC VAILHAUQUOIS 03:53:00 16 12 26,78
361 511 L'HOTE HUBERT MJ VC LUNELLOIS 03:53:05 345 53 26,77
362 603 GALABRUN ANDRE MJ LUNEL EGOBIKE 03:53:26 346 54 26,73
363 565 MALOCHET ALAIN MI CS SAUXILLANGES 03:53:53 347 38 26,68
364 683 BOEUF ROBERT MSE   03:54:33 348 43 26,60
365 708 GALON JEAN PHILIPPE ME   03:55:36 349 77 26,48
366 928 DEMARCO SANDRINE FB CROCOS D'AIRAIN 03:56:00 17 5 26,44
367 934 RUFFE PATRICK MG   03:56:27 350 57 26,39
368 829 AMADIEU PATRICE FSE   03:58:10 351 63 26,20
369 713 CHARRIERE PATRICIA FC VÉLO CLUB BOURG ST MAURICE 04:00:30 18 13 25,95
370 510 AZEMA CHRISTELLE FB VC LUNELLOIS 04:01:08 19 6 25,88
371 773 LEME CHRISTIAN MSE AS POLICE 04:01:14 352 44 25,87
372 828 DESTRUMELLE NICOLAS FSE   04:01:51 353 64 25,80
373 689 ROUGE DAVID MD VS MINERVOIS 04:02:58 354 20 25,68
374 515 GOURC JEAN PHILIPPE MK VC LUNELLOIS 04:04:27 355 1 25,53
375 577 VALVERDE JOSEPH FSE CLUB NEUTRE LR 04:04:40 356 65 25,50
376 654 BRUILLIAIRE YVES MJ MONTAGNAC AC 04:04:58 357 55 25,47
377 767 GACHIES PASCAL FSE AS POLICE 04:05:27 358 66 25,42
378 705 LAGNEAU CHRISTOPHE MSE TEYRAN BIKE 34 04:06:14 359 45 25,34
379 858 VIEU LAURENT ME   04:07:10 360 78 25,24
380 591 SERANE JACQUES MI   04:07:46 361 39 25,18
381 909 ORTIZ ALAIN MJ USTM SEPTEMES 04:07:57 362 56 25,17
382 661 VALETTE ERIC MG LUNEL EGOBIKE 04:09:32 363 58 25,01
383 874 MARTINI ANDRE MJ   04:09:36 364 57 25,00
384 871 GILBERT ERIC FSE   04:09:41 365 67 24,99
385 759 CHOMETTE DANIEL MJ SC THIERMOIS 04:13:09 366 58 24,65
386 637 RODRIGUEZ ISMAEL MSE ST JUST AVENTURE 04:13:55 367 46 24,57
387 756 NOUGARET GILLES MI   04:15:36 368 40 24,41
388 588 GASPARINI ROMAIN MD   04:19:02 369 21 24,09
389 748 CINQUINI RAYMOND MJ USTM SEPTEMES 04:19:25 370 59 24,05
390 749 CINQUINI PATRICIA FC USTM SEPTEMES 04:19:25 20 14 24,05
391 638 ALCALA JOAQUIM MSE   04:20:11 371 47 23,98
392 855 JONARD DANIELLE FC RHONE ALPES CYCLISME 04:21:17 21 15 23,88
393 573 IMBERT FRÉDÉRIC FSE   04:21:32 372 68 23,86
394 615 HENRIC JEAN MICHEL FSE   04:21:33 373 69 23,86
395 676 COLLIN JEAN DANIEL MG   04:21:48 374 59 23,83
396 32 AYMARD JEAN PIERRE MSE VC LUNELLOIS 04:25:20 375 48 23,52
397 709 BISTUE GILLES FSE   04:26:50 376 70 23,39
398 818 TAULEIGNE RICHARD FSE AC MOUGINS 04:26:59 377 71 23,37
399 789 ROLLAND GUILLAUME FSE AC MOUGIN 04:27:22 378 72 23,34
400 845 OTALORA PASCAL ME   04:32:05 379 79 22,93
401 935 GRAVIL MARLENE FB CROCOS D'AIRAIN 04:34:17 22 7 22,75
402 924 GUILLEN JEAN LUC MSE   04:46:44 380 49 21,76
403 863 VERZEROLI ALINE FC VC GAP 04:49:19 23 16 21,57